sensor_id;sensor_type;location;lat;lon;timestamp;P1;durP1;ratioP1;P2;durP2;ratioP2
78796;SDS011;68145;52.514;13.460;2023-05-10T00:01:52;6.63;;;4.55;;
78796;SDS011;68145;52.514;13.460;2023-05-10T00:04:19;8.25;;;4.40;;
78796;SDS011;68145;52.514;13.460;2023-05-10T00:06:45;7.95;;;4.50;;
78796;SDS011;68145;52.514;13.460;2023-05-10T00:09:11;7.10;;;4.90;;
78796;SDS011;68145;52.514;13.460;2023-05-10T00:11:37;9.35;;;5.65;;
78796;SDS011;68145;52.514;13.460;2023-05-10T00:14:03;7.75;;;5.15;;
78796;SDS011;68145;52.514;13.460;2023-05-10T00:16:29;6.75;;;4.43;;
78796;SDS011;68145;52.514;13.460;2023-05-10T00:18:55;7.25;;;4.53;;
78796;SDS011;68145;52.514;13.460;2023-05-10T00:21:21;7.25;;;4.80;;
78796;SDS011;68145;52.514;13.460;2023-05-10T00:23:47;9.30;;;5.28;;
78796;SDS011;68145;52.514;13.460;2023-05-10T00:26:14;8.05;;;4.93;;
78796;SDS011;68145;52.514;13.460;2023-05-10T00:28:41;7.20;;;4.50;;
78796;SDS011;68145;52.514;13.460;2023-05-10T00:31:07;9.60;;;5.03;;
78796;SDS011;68145;52.514;13.460;2023-05-10T00:33:33;6.60;;;4.82;;
78796;SDS011;68145;52.514;13.460;2023-05-10T00:35:59;6.35;;;4.95;;
78796;SDS011;68145;52.514;13.460;2023-05-10T00:38:26;6.55;;;4.63;;
78796;SDS011;68145;52.514;13.460;2023-05-10T00:40:53;7.65;;;4.78;;
78796;SDS011;68145;52.514;13.460;2023-05-10T00:43:19;6.72;;;4.45;;
78796;SDS011;68145;52.514;13.460;2023-05-10T00:45:45;7.35;;;4.70;;
78796;SDS011;68145;52.514;13.460;2023-05-10T00:48:11;7.63;;;4.68;;
78796;SDS011;68145;52.514;13.460;2023-05-10T00:50:37;7.07;;;4.75;;
78796;SDS011;68145;52.514;13.460;2023-05-10T00:53:05;7.13;;;4.78;;
78796;SDS011;68145;52.514;13.460;2023-05-10T00:55:31;9.80;;;4.65;;
78796;SDS011;68145;52.514;13.460;2023-05-10T00:57:57;6.35;;;4.47;;
78796;SDS011;68145;52.514;13.460;2023-05-10T01:00:23;6.32;;;4.30;;
78796;SDS011;68145;52.514;13.460;2023-05-10T01:02:50;9.05;;;4.93;;
78796;SDS011;68145;52.514;13.460;2023-05-10T01:05:16;6.43;;;5.10;;
78796;SDS011;68145;52.514;13.460;2023-05-10T01:07:42;7.97;;;4.82;;
78796;SDS011;68145;52.514;13.460;2023-05-10T01:10:09;7.30;;;4.53;;
78796;SDS011;68145;52.514;13.460;2023-05-10T01:12:37;5.05;;;4.10;;
78796;SDS011;68145;52.514;13.460;2023-05-10T01:15:04;10.13;;;5.00;;
78796;SDS011;68145;52.514;13.460;2023-05-10T01:17:31;10.77;;;5.80;;
78796;SDS011;68145;52.514;13.460;2023-05-10T01:19:58;8.32;;;5.07;;
78796;SDS011;68145;52.514;13.460;2023-05-10T01:27:57;8.80;;;4.95;;
78796;SDS011;68145;52.514;13.460;2023-05-10T01:37:46;8.80;;;4.85;;
78796;SDS011;68145;52.514;13.460;2023-05-10T01:42:44;6.45;;;4.82;;
78796;SDS011;68145;52.514;13.460;2023-05-10T01:47:39;6.60;;;4.75;;
78796;SDS011;68145;52.514;13.460;2023-05-10T01:50:09;7.82;;;4.97;;
78796;SDS011;68145;52.514;13.460;2023-05-10T01:52:40;8.07;;;4.30;;
78796;SDS011;68145;52.514;13.460;2023-05-10T01:55:13;6.35;;;4.70;;
78796;SDS011;68145;52.514;13.460;2023-05-10T01:57:39;8.00;;;4.72;;
78796;SDS011;68145;52.514;13.460;2023-05-10T02:00:06;7.35;;;4.60;;
78796;SDS011;68145;52.514;13.460;2023-05-10T02:02:36;7.95;;;5.13;;
78796;SDS011;68145;52.514;13.460;2023-05-10T02:05:03;6.43;;;4.45;;
78796;SDS011;68145;52.514;13.460;2023-05-10T02:07:30;7.57;;;4.78;;
78796;SDS011;68145;52.514;13.460;2023-05-10T02:09:57;8.60;;;5.20;;
78796;SDS011;68145;52.514;13.460;2023-05-10T02:12:24;6.97;;;4.50;;
78796;SDS011;68145;52.514;13.460;2023-05-10T02:14:50;6.45;;;4.65;;
78796;SDS011;68145;52.514;13.460;2023-05-10T02:17:17;6.25;;;4.60;;
78796;SDS011;68145;52.514;13.460;2023-05-10T02:19:44;8.13;;;5.15;;
78796;SDS011;68145;52.514;13.460;2023-05-10T02:22:10;7.72;;;4.75;;
78796;SDS011;68145;52.514;13.460;2023-05-10T02:24:37;7.57;;;4.82;;
78796;SDS011;68145;52.514;13.460;2023-05-10T02:27:04;6.60;;;4.75;;
78796;SDS011;68145;52.514;13.460;2023-05-10T02:29:31;7.60;;;4.63;;
78796;SDS011;68145;52.514;13.460;2023-05-10T02:31:57;6.55;;;5.05;;
78796;SDS011;68145;52.514;13.460;2023-05-10T02:34:27;7.25;;;4.43;;
78796;SDS011;68145;52.514;13.460;2023-05-10T02:36:54;8.48;;;4.32;;
78796;SDS011;68145;52.514;13.460;2023-05-10T02:39:21;6.47;;;4.57;;
78796;SDS011;68145;52.514;13.460;2023-05-10T02:41:48;5.97;;;4.70;;
78796;SDS011;68145;52.514;13.460;2023-05-10T02:44:15;7.43;;;4.65;;
78796;SDS011;68145;52.514;13.460;2023-05-10T02:46:41;7.50;;;4.97;;
78796;SDS011;68145;52.514;13.460;2023-05-10T02:49:08;6.63;;;4.90;;
78796;SDS011;68145;52.514;13.460;2023-05-10T02:51:35;7.43;;;5.03;;
78796;SDS011;68145;52.514;13.460;2023-05-10T02:54:04;6.60;;;4.30;;
78796;SDS011;68145;52.514;13.460;2023-05-10T02:56:33;6.35;;;5.00;;
78796;SDS011;68145;52.514;13.460;2023-05-10T02:59:00;7.32;;;4.53;;
78796;SDS011;68145;52.514;13.460;2023-05-10T03:01:26;7.50;;;4.75;;
78796;SDS011;68145;52.514;13.460;2023-05-10T03:03:52;8.68;;;4.45;;
78796;SDS011;68145;52.514;13.460;2023-05-10T03:06:18;8.63;;;4.45;;
78796;SDS011;68145;52.514;13.460;2023-05-10T03:08:44;7.95;;;4.45;;
78796;SDS011;68145;52.514;13.460;2023-05-10T03:13:44;6.28;;;4.10;;
78796;SDS011;68145;52.514;13.460;2023-05-10T03:16:14;7.35;;;4.60;;
78796;SDS011;68145;52.514;13.460;2023-05-10T03:18:46;7.00;;;4.40;;
78796;SDS011;68145;52.514;13.460;2023-05-10T03:21:14;8.32;;;4.10;;
78796;SDS011;68145;52.514;13.460;2023-05-10T03:23:44;11.55;;;4.88;;
78796;SDS011;68145;52.514;13.460;2023-05-10T03:26:17;6.97;;;4.28;;
78796;SDS011;68145;52.514;13.460;2023-05-10T03:28:43;8.60;;;4.60;;
78796;SDS011;68145;52.514;13.460;2023-05-10T03:31:09;7.43;;;4.35;;
78796;SDS011;68145;52.514;13.460;2023-05-10T03:33:41;8.27;;;5.07;;
78796;SDS011;68145;52.514;13.460;2023-05-10T03:36:11;8.15;;;4.60;;
78796;SDS011;68145;52.514;13.460;2023-05-10T03:38:37;10.38;;;4.68;;
78796;SDS011;68145;52.514;13.460;2023-05-10T03:41:03;7.88;;;5.20;;
78796;SDS011;68145;52.514;13.460;2023-05-10T03:43:29;7.03;;;4.45;;
78796;SDS011;68145;52.514;13.460;2023-05-10T03:45:55;6.82;;;4.60;;
78796;SDS011;68145;52.514;13.460;2023-05-10T03:48:21;10.18;;;4.72;;
78796;SDS011;68145;52.514;13.460;2023-05-10T03:50:47;6.80;;;4.35;;
78796;SDS011;68145;52.514;13.460;2023-05-10T03:53:14;6.22;;;3.92;;
78796;SDS011;68145;52.514;13.460;2023-05-10T03:55:41;7.20;;;4.55;;
78796;SDS011;68145;52.514;13.460;2023-05-10T03:58:07;5.78;;;4.30;;
78796;SDS011;68145;52.514;13.460;2023-05-10T04:00:36;8.52;;;4.40;;
78796;SDS011;68145;52.514;13.460;2023-05-10T04:03:02;6.22;;;3.95;;
78796;SDS011;68145;52.514;13.460;2023-05-10T04:05:28;7.10;;;4.00;;
78796;SDS011;68145;52.514;13.460;2023-05-10T04:07:54;11.10;;;4.65;;
78796;SDS011;68145;52.514;13.460;2023-05-10T04:10:20;7.15;;;4.05;;
78796;SDS011;68145;52.514;13.460;2023-05-10T04:12:46;7.65;;;4.55;;
78796;SDS011;68145;52.514;13.460;2023-05-10T04:15:12;8.95;;;4.47;;
78796;SDS011;68145;52.514;13.460;2023-05-10T04:17:38;7.55;;;4.30;;
78796;SDS011;68145;52.514;13.460;2023-05-10T04:20:05;7.97;;;4.60;;
78796;SDS011;68145;52.514;13.460;2023-05-10T04:22:31;7.40;;;4.50;;
78796;SDS011;68145;52.514;13.460;2023-05-10T04:24:57;8.35;;;4.43;;
78796;SDS011;68145;52.514;13.460;2023-05-10T04:27:23;6.85;;;4.28;;
78796;SDS011;68145;52.514;13.460;2023-05-10T04:29:50;6.70;;;3.80;;
78796;SDS011;68145;52.514;13.460;2023-05-10T04:32:16;8.05;;;4.30;;
78796;SDS011;68145;52.514;13.460;2023-05-10T04:34:42;5.88;;;4.03;;
78796;SDS011;68145;52.514;13.460;2023-05-10T04:37:08;7.88;;;4.47;;
78796;SDS011;68145;52.514;13.460;2023-05-10T04:39:34;8.13;;;4.60;;
78796;SDS011;68145;52.514;13.460;2023-05-10T04:42:01;6.95;;;4.55;;
78796;SDS011;68145;52.514;13.460;2023-05-10T04:44:28;5.65;;;3.78;;
78796;SDS011;68145;52.514;13.460;2023-05-10T04:46:54;8.68;;;4.47;;
78796;SDS011;68145;52.514;13.460;2023-05-10T04:49:21;5.85;;;4.05;;
78796;SDS011;68145;52.514;13.460;2023-05-10T04:51:47;8.63;;;3.83;;
78796;SDS011;68145;52.514;13.460;2023-05-10T04:54:14;5.75;;;3.92;;
78796;SDS011;68145;52.514;13.460;2023-05-10T04:56:40;7.15;;;3.88;;
78796;SDS011;68145;52.514;13.460;2023-05-10T04:59:06;7.57;;;4.30;;
78796;SDS011;68145;52.514;13.460;2023-05-10T05:01:32;5.28;;;3.30;;
78796;SDS011;68145;52.514;13.460;2023-05-10T05:03:58;7.15;;;3.67;;
78796;SDS011;68145;52.514;13.460;2023-05-10T05:06:24;8.52;;;4.28;;
78796;SDS011;68145;52.514;13.460;2023-05-10T05:08:52;8.35;;;4.57;;
78796;SDS011;68145;52.514;13.460;2023-05-10T05:11:18;8.43;;;3.78;;
78796;SDS011;68145;52.514;13.460;2023-05-10T05:13:44;6.47;;;3.72;;
78796;SDS011;68145;52.514;13.460;2023-05-10T05:16:10;6.68;;;3.78;;
78796;SDS011;68145;52.514;13.460;2023-05-10T05:18:36;6.07;;;3.88;;
78796;SDS011;68145;52.514;13.460;2023-05-10T05:21:02;6.30;;;3.50;;
78796;SDS011;68145;52.514;13.460;2023-05-10T05:23:28;5.30;;;3.42;;
78796;SDS011;68145;52.514;13.460;2023-05-10T05:25:55;5.18;;;3.60;;
78796;SDS011;68145;52.514;13.460;2023-05-10T05:28:21;11.52;;;3.78;;
78796;SDS011;68145;52.514;13.460;2023-05-10T05:30:47;5.63;;;4.00;;
78796;SDS011;68145;52.514;13.460;2023-05-10T05:33:13;7.63;;;3.70;;
78796;SDS011;68145;52.514;13.460;2023-05-10T05:35:42;6.97;;;3.55;;
78796;SDS011;68145;52.514;13.460;2023-05-10T05:38:12;6.35;;;3.70;;
78796;SDS011;68145;52.514;13.460;2023-05-10T05:40:38;7.07;;;3.53;;
78796;SDS011;68145;52.514;13.460;2023-05-10T05:43:04;9.98;;;3.58;;
78796;SDS011;68145;52.514;13.460;2023-05-10T05:45:30;6.32;;;3.75;;
78796;SDS011;68145;52.514;13.460;2023-05-10T05:47:56;8.82;;;3.45;;
78796;SDS011;68145;52.514;13.460;2023-05-10T05:50:22;5.43;;;3.50;;
78796;SDS011;68145;52.514;13.460;2023-05-10T05:52:48;8.98;;;3.50;;
78796;SDS011;68145;52.514;13.460;2023-05-10T05:55:14;6.38;;;3.35;;
78796;SDS011;68145;52.514;13.460;2023-05-10T05:57:40;4.70;;;2.92;;
78796;SDS011;68145;52.514;13.460;2023-05-10T06:00:07;6.43;;;3.38;;
78796;SDS011;68145;52.514;13.460;2023-05-10T06:02:33;8.88;;;3.67;;
78796;SDS011;68145;52.514;13.460;2023-05-10T06:04:59;6.38;;;3.22;;
78796;SDS011;68145;52.514;13.460;2023-05-10T06:07:25;7.10;;;3.38;;
78796;SDS011;68145;52.514;13.460;2023-05-10T06:09:52;5.63;;;3.50;;
78796;SDS011;68145;52.514;13.460;2023-05-10T06:12:18;5.28;;;3.10;;
78796;SDS011;68145;52.514;13.460;2023-05-10T06:14:44;5.70;;;3.08;;
78796;SDS011;68145;52.514;13.460;2023-05-10T06:17:10;4.65;;;2.58;;
78796;SDS011;68145;52.514;13.460;2023-05-10T06:19:36;5.18;;;2.70;;
78796;SDS011;68145;52.514;13.460;2023-05-10T06:22:02;6.55;;;3.00;;
78796;SDS011;68145;52.514;13.460;2023-05-10T06:24:28;5.72;;;2.92;;
78796;SDS011;68145;52.514;13.460;2023-05-10T06:26:54;5.93;;;3.22;;
78796;SDS011;68145;52.514;13.460;2023-05-10T06:29:20;7.75;;;3.33;;
78796;SDS011;68145;52.514;13.460;2023-05-10T06:31:46;3.78;;;2.70;;
78796;SDS011;68145;52.514;13.460;2023-05-10T06:34:13;6.63;;;3.05;;
78796;SDS011;68145;52.514;13.460;2023-05-10T06:36:39;5.63;;;3.05;;
78796;SDS011;68145;52.514;13.460;2023-05-10T06:39:05;5.47;;;3.00;;
78796;SDS011;68145;52.514;13.460;2023-05-10T06:41:32;5.25;;;2.75;;
78796;SDS011;68145;52.514;13.460;2023-05-10T06:43:58;8.98;;;4.45;;
78796;SDS011;68145;52.514;13.460;2023-05-10T06:46:24;7.68;;;3.42;;
78796;SDS011;68145;52.514;13.460;2023-05-10T06:48:50;4.63;;;3.10;;
78796;SDS011;68145;52.514;13.460;2023-05-10T06:51:16;6.18;;;3.05;;
78796;SDS011;68145;52.514;13.460;2023-05-10T06:53:42;10.98;;;3.20;;
78796;SDS011;68145;52.514;13.460;2023-05-10T06:56:08;4.95;;;3.10;;
78796;SDS011;68145;52.514;13.460;2023-05-10T06:58:34;6.28;;;2.65;;
78796;SDS011;68145;52.514;13.460;2023-05-10T07:01:04;6.55;;;2.60;;
78796;SDS011;68145;52.514;13.460;2023-05-10T07:03:31;5.30;;;3.25;;
78796;SDS011;68145;52.514;13.460;2023-05-10T07:06:00;5.78;;;2.70;;
78796;SDS011;68145;52.514;13.460;2023-05-10T07:08:28;7.40;;;3.47;;
78796;SDS011;68145;52.514;13.460;2023-05-10T07:10:58;4.95;;;2.60;;
78796;SDS011;68145;52.514;13.460;2023-05-10T07:13:25;5.63;;;2.80;;
78796;SDS011;68145;52.514;13.460;2023-05-10T07:15:51;7.60;;;3.25;;
78796;SDS011;68145;52.514;13.460;2023-05-10T07:18:17;6.43;;;2.78;;
78796;SDS011;68145;52.514;13.460;2023-05-10T07:20:43;17.13;;;3.40;;
78796;SDS011;68145;52.514;13.460;2023-05-10T07:23:09;6.80;;;2.75;;
78796;SDS011;68145;52.514;13.460;2023-05-10T07:25:35;5.88;;;2.80;;
78796;SDS011;68145;52.514;13.460;2023-05-10T07:28:01;3.78;;;2.80;;
78796;SDS011;68145;52.514;13.460;2023-05-10T07:30:27;4.95;;;3.28;;
78796;SDS011;68145;52.514;13.460;2023-05-10T07:33:00;6.50;;;2.95;;
78796;SDS011;68145;52.514;13.460;2023-05-10T07:35:43;8.68;;;3.20;;
78796;SDS011;68145;52.514;13.460;2023-05-10T07:38:09;6.43;;;2.70;;
78796;SDS011;68145;52.514;13.460;2023-05-10T07:40:36;5.72;;;2.72;;
78796;SDS011;68145;52.514;13.460;2023-05-10T07:43:03;4.07;;;2.88;;
78796;SDS011;68145;52.514;13.460;2023-05-10T07:45:29;3.30;;;2.47;;
78796;SDS011;68145;52.514;13.460;2023-05-10T07:47:55;7.85;;;3.35;;
78796;SDS011;68145;52.514;13.460;2023-05-10T07:50:21;4.85;;;3.00;;
78796;SDS011;68145;52.514;13.460;2023-05-10T07:52:47;4.90;;;3.10;;
78796;SDS011;68145;52.514;13.460;2023-05-10T07:55:13;6.20;;;3.25;;
78796;SDS011;68145;52.514;13.460;2023-05-10T07:57:39;5.50;;;3.03;;
78796;SDS011;68145;52.514;13.460;2023-05-10T08:00:06;5.68;;;2.92;;
78796;SDS011;68145;52.514;13.460;2023-05-10T08:02:33;6.72;;;2.80;;
78796;SDS011;68145;52.514;13.460;2023-05-10T08:04:59;3.83;;;2.63;;
78796;SDS011;68145;52.514;13.460;2023-05-10T08:07:25;4.20;;;2.90;;
78796;SDS011;68145;52.514;13.460;2023-05-10T08:09:51;5.60;;;3.20;;
78796;SDS011;68145;52.514;13.460;2023-05-10T08:12:17;4.30;;;2.75;;
78796;SDS011;68145;52.514;13.460;2023-05-10T08:14:43;5.03;;;2.72;;
78796;SDS011;68145;52.514;13.460;2023-05-10T08:17:09;4.78;;;3.15;;
78796;SDS011;68145;52.514;13.460;2023-05-10T08:19:36;4.25;;;2.50;;
78796;SDS011;68145;52.514;13.460;2023-05-10T08:22:02;4.18;;;2.70;;
78796;SDS011;68145;52.514;13.460;2023-05-10T08:24:28;5.20;;;3.25;;
78796;SDS011;68145;52.514;13.460;2023-05-10T08:26:54;8.50;;;2.67;;
78796;SDS011;68145;52.514;13.460;2023-05-10T08:29:20;4.82;;;2.45;;
78796;SDS011;68145;52.514;13.460;2023-05-10T08:31:46;9.18;;;3.03;;
78796;SDS011;68145;52.514;13.460;2023-05-10T08:34:12;5.20;;;2.88;;
78796;SDS011;68145;52.514;13.460;2023-05-10T08:36:38;3.47;;;2.58;;
78796;SDS011;68145;52.514;13.460;2023-05-10T08:39:04;4.68;;;2.90;;
78796;SDS011;68145;52.514;13.460;2023-05-10T08:41:30;6.70;;;3.22;;
78796;SDS011;68145;52.514;13.460;2023-05-10T08:43:59;5.07;;;2.78;;
78796;SDS011;68145;52.514;13.460;2023-05-10T08:46:28;4.55;;;2.90;;
78796;SDS011;68145;52.514;13.460;2023-05-10T08:48:55;5.88;;;2.90;;
78796;SDS011;68145;52.514;13.460;2023-05-10T08:51:22;5.40;;;2.90;;
78796;SDS011;68145;52.514;13.460;2023-05-10T08:53:50;6.28;;;2.70;;
78796;SDS011;68145;52.514;13.460;2023-05-10T08:56:16;7.47;;;3.30;;
78796;SDS011;68145;52.514;13.460;2023-05-10T08:58:42;4.30;;;2.67;;
78796;SDS011;68145;52.514;13.460;2023-05-10T09:01:09;5.25;;;3.05;;
78796;SDS011;68145;52.514;13.460;2023-05-10T09:03:37;6.65;;;3.00;;
78796;SDS011;68145;52.514;13.460;2023-05-10T09:06:04;4.28;;;2.92;;
78796;SDS011;68145;52.514;13.460;2023-05-10T09:08:30;4.28;;;2.70;;
78796;SDS011;68145;52.514;13.460;2023-05-10T09:10:56;4.43;;;2.72;;
78796;SDS011;68145;52.514;13.460;2023-05-10T09:13:23;5.28;;;3.00;;
78796;SDS011;68145;52.514;13.460;2023-05-10T09:15:49;6.13;;;3.13;;
78796;SDS011;68145;52.514;13.460;2023-05-10T09:18:16;6.07;;;3.17;;
78796;SDS011;68145;52.514;13.460;2023-05-10T09:20:42;8.48;;;3.78;;
78796;SDS011;68145;52.514;13.460;2023-05-10T09:23:08;4.68;;;3.00;;
78796;SDS011;68145;52.514;13.460;2023-05-10T09:25:34;5.45;;;2.72;;
78796;SDS011;68145;52.514;13.460;2023-05-10T09:28:00;9.25;;;3.05;;
78796;SDS011;68145;52.514;13.460;2023-05-10T09:30:30;6.35;;;3.17;;
78796;SDS011;68145;52.514;13.460;2023-05-10T09:32:57;3.85;;;2.80;;
78796;SDS011;68145;52.514;13.460;2023-05-10T09:35:24;8.23;;;3.13;;
78796;SDS011;68145;52.514;13.460;2023-05-10T09:37:52;4.38;;;3.15;;
78796;SDS011;68145;52.514;13.460;2023-05-10T09:42:51;6.53;;;3.08;;
78796;SDS011;68145;52.514;13.460;2023-05-10T09:45:18;6.72;;;3.03;;
78796;SDS011;68145;52.514;13.460;2023-05-10T09:47:45;6.72;;;2.97;;
78796;SDS011;68145;52.514;13.460;2023-05-10T09:50:11;6.20;;;3.03;;
78796;SDS011;68145;52.514;13.460;2023-05-10T09:52:50;5.90;;;3.13;;
78796;SDS011;68145;52.514;13.460;2023-05-10T09:55:18;7.22;;;3.40;;
78796;SDS011;68145;52.514;13.460;2023-05-10T09:57:45;7.75;;;3.45;;
78796;SDS011;68145;52.514;13.460;2023-05-10T10:00:14;5.55;;;2.83;;
78796;SDS011;68145;52.514;13.460;2023-05-10T10:02:42;8.50;;;3.45;;
78796;SDS011;68145;52.514;13.460;2023-05-10T10:05:08;8.15;;;2.90;;
78796;SDS011;68145;52.514;13.460;2023-05-10T10:07:34;8.43;;;2.97;;
78796;SDS011;68145;52.514;13.460;2023-05-10T10:10:00;5.35;;;2.95;;
78796;SDS011;68145;52.514;13.460;2023-05-10T10:12:27;4.68;;;3.03;;
78796;SDS011;68145;52.514;13.460;2023-05-10T10:14:53;5.03;;;2.90;;
78796;SDS011;68145;52.514;13.460;2023-05-10T10:17:21;4.95;;;2.72;;
78796;SDS011;68145;52.514;13.460;2023-05-10T10:19:47;3.83;;;2.95;;
78796;SDS011;68145;52.514;13.460;2023-05-10T10:22:14;6.00;;;2.90;;
78796;SDS011;68145;52.514;13.460;2023-05-10T10:24:40;4.80;;;2.80;;
78796;SDS011;68145;52.514;13.460;2023-05-10T10:29:45;9.10;;;4.78;;
78796;SDS011;68145;52.514;13.460;2023-05-10T10:34:45;7.13;;;3.53;;
78796;SDS011;68145;52.514;13.460;2023-05-10T10:37:12;6.40;;;3.90;;
78796;SDS011;68145;52.514;13.460;2023-05-10T10:39:38;5.85;;;2.83;;
78796;SDS011;68145;52.514;13.460;2023-05-10T10:42:04;5.65;;;2.70;;
78796;SDS011;68145;52.514;13.460;2023-05-10T10:49:52;4.35;;;2.90;;
78796;SDS011;68145;52.514;13.460;2023-05-10T10:54:51;7.97;;;3.55;;
78796;SDS011;68145;52.514;13.460;2023-05-10T10:57:18;4.95;;;2.92;;
78796;SDS011;68145;52.514;13.460;2023-05-10T10:59:46;6.68;;;4.22;;
78796;SDS011;68145;52.514;13.460;2023-05-10T11:04:57;5.25;;;3.03;;
78796;SDS011;68145;52.514;13.460;2023-05-10T11:07:24;5.45;;;3.20;;
78796;SDS011;68145;52.514;13.460;2023-05-10T11:09:50;4.20;;;2.80;;
78796;SDS011;68145;52.514;13.460;2023-05-10T11:12:16;5.15;;;3.15;;
78796;SDS011;68145;52.514;13.460;2023-05-10T11:14:42;8.70;;;3.08;;
78796;SDS011;68145;52.514;13.460;2023-05-10T11:17:24;6.90;;;2.97;;
78796;SDS011;68145;52.514;13.460;2023-05-10T11:20:09;5.05;;;3.20;;
78796;SDS011;68145;52.514;13.460;2023-05-10T11:22:51;5.95;;;3.45;;
78796;SDS011;68145;52.514;13.460;2023-05-10T11:25:17;5.18;;;3.03;;
78796;SDS011;68145;52.514;13.460;2023-05-10T11:27:43;4.32;;;2.83;;
78796;SDS011;68145;52.514;13.460;2023-05-10T11:30:10;4.47;;;2.97;;
78796;SDS011;68145;52.514;13.460;2023-05-10T11:32:37;4.00;;;2.85;;
78796;SDS011;68145;52.514;13.460;2023-05-10T11:35:10;9.50;;;3.10;;
78796;SDS011;68145;52.514;13.460;2023-05-10T11:37:38;8.98;;;3.35;;
78796;SDS011;68145;52.514;13.460;2023-05-10T11:40:07;6.00;;;2.90;;
78796;SDS011;68145;52.514;13.460;2023-05-10T11:42:36;8.43;;;2.75;;
78796;SDS011;68145;52.514;13.460;2023-05-10T11:45:03;5.68;;;2.72;;
78796;SDS011;68145;52.514;13.460;2023-05-10T11:47:29;4.05;;;2.75;;
78796;SDS011;68145;52.514;13.460;2023-05-10T11:49:55;11.82;;;3.53;;
78796;SDS011;68145;52.514;13.460;2023-05-10T11:52:21;5.05;;;2.83;;
78796;SDS011;68145;52.514;13.460;2023-05-10T11:54:51;6.53;;;2.90;;
78796;SDS011;68145;52.514;13.460;2023-05-10T11:57:20;6.53;;;2.65;;
78796;SDS011;68145;52.514;13.460;2023-05-10T11:59:47;6.45;;;2.35;;
78796;SDS011;68145;52.514;13.460;2023-05-10T12:02:13;9.18;;;3.00;;
78796;SDS011;68145;52.514;13.460;2023-05-10T12:04:40;10.73;;;2.50;;
78796;SDS011;68145;52.514;13.460;2023-05-10T12:07:06;7.68;;;2.72;;
78796;SDS011;68145;52.514;13.460;2023-05-10T12:09:32;6.35;;;2.55;;
78796;SDS011;68145;52.514;13.460;2023-05-10T12:11:58;6.03;;;5.05;;
78796;SDS011;68145;52.514;13.460;2023-05-10T12:14:26;5.00;;;2.72;;
78796;SDS011;68145;52.514;13.460;2023-05-10T12:16:53;7.65;;;2.63;;
78796;SDS011;68145;52.514;13.460;2023-05-10T12:19:19;6.88;;;2.90;;
78796;SDS011;68145;52.514;13.460;2023-05-10T12:21:46;5.28;;;2.78;;
78796;SDS011;68145;52.514;13.460;2023-05-10T12:24:12;5.05;;;2.72;;
78796;SDS011;68145;52.514;13.460;2023-05-10T12:26:41;7.03;;;2.97;;
78796;SDS011;68145;52.514;13.460;2023-05-10T12:29:11;6.30;;;2.90;;
78796;SDS011;68145;52.514;13.460;2023-05-10T12:31:54;3.63;;;2.67;;
78796;SDS011;68145;52.514;13.460;2023-05-10T12:34:24;6.13;;;2.63;;
78796;SDS011;68145;52.514;13.460;2023-05-10T12:36:53;4.38;;;2.85;;
78796;SDS011;68145;52.514;13.460;2023-05-10T12:39:19;5.20;;;2.65;;
78796;SDS011;68145;52.514;13.460;2023-05-10T12:41:46;5.28;;;2.85;;
78796;SDS011;68145;52.514;13.460;2023-05-10T12:44:12;7.90;;;3.10;;
78796;SDS011;68145;52.514;13.460;2023-05-10T12:46:38;7.03;;;2.63;;
78796;SDS011;68145;52.514;13.460;2023-05-10T12:49:04;6.65;;;2.80;;
78796;SDS011;68145;52.514;13.460;2023-05-10T12:51:30;11.88;;;3.10;;
78796;SDS011;68145;52.514;13.460;2023-05-10T12:53:56;7.10;;;2.88;;
78796;SDS011;68145;52.514;13.460;2023-05-10T12:56:22;6.15;;;3.00;;
78796;SDS011;68145;52.514;13.460;2023-05-10T12:58:48;9.25;;;3.00;;
78796;SDS011;68145;52.514;13.460;2023-05-10T13:01:14;6.43;;;2.50;;
78796;SDS011;68145;52.514;13.460;2023-05-10T13:03:40;5.43;;;2.75;;
78796;SDS011;68145;52.514;13.460;2023-05-10T13:08:34;6.63;;;2.72;;
78796;SDS011;68145;52.514;13.460;2023-05-10T13:11:00;7.03;;;3.08;;
78796;SDS011;68145;52.514;13.460;2023-05-10T13:13:26;6.00;;;2.63;;
78796;SDS011;68145;52.514;13.460;2023-05-10T13:15:52;6.15;;;2.75;;
78796;SDS011;68145;52.514;13.460;2023-05-10T13:18:18;5.15;;;2.60;;
78796;SDS011;68145;52.514;13.460;2023-05-10T13:20:45;6.22;;;3.55;;
78796;SDS011;68145;52.514;13.460;2023-05-10T13:23:11;6.18;;;2.80;;
78796;SDS011;68145;52.514;13.460;2023-05-10T13:25:37;5.85;;;2.80;;
78796;SDS011;68145;52.514;13.460;2023-05-10T13:28:04;5.28;;;2.53;;
78796;SDS011;68145;52.514;13.460;2023-05-10T13:30:30;4.88;;;3.05;;
78796;SDS011;68145;52.514;13.460;2023-05-10T13:32:56;3.50;;;2.72;;
78796;SDS011;68145;52.514;13.460;2023-05-10T13:35:22;5.45;;;3.00;;
78796;SDS011;68145;52.514;13.460;2023-05-10T13:37:48;5.97;;;2.53;;
78796;SDS011;68145;52.514;13.460;2023-05-10T13:40:14;4.00;;;2.60;;
78796;SDS011;68145;52.514;13.460;2023-05-10T13:42:40;5.50;;;2.65;;
78796;SDS011;68145;52.514;13.460;2023-05-10T13:45:06;5.22;;;2.90;;
78796;SDS011;68145;52.514;13.460;2023-05-10T13:47:33;5.05;;;2.80;;
78796;SDS011;68145;52.514;13.460;2023-05-10T13:49:59;5.30;;;2.85;;
78796;SDS011;68145;52.514;13.460;2023-05-10T13:52:25;5.40;;;2.67;;
78796;SDS011;68145;52.514;13.460;2023-05-10T13:54:52;4.97;;;2.53;;
78796;SDS011;68145;52.514;13.460;2023-05-10T13:57:20;4.10;;;2.60;;
78796;SDS011;68145;52.514;13.460;2023-05-10T13:59:46;7.65;;;2.78;;
78796;SDS011;68145;52.514;13.460;2023-05-10T14:02:13;4.35;;;2.65;;
78796;SDS011;68145;52.514;13.460;2023-05-10T14:04:39;7.43;;;2.92;;
78796;SDS011;68145;52.514;13.460;2023-05-10T14:07:05;7.28;;;3.60;;
78796;SDS011;68145;52.514;13.460;2023-05-10T14:09:31;6.60;;;2.85;;
78796;SDS011;68145;52.514;13.460;2023-05-10T14:11:57;6.00;;;2.95;;
78796;SDS011;68145;52.514;13.460;2023-05-10T14:14:23;5.28;;;2.90;;
78796;SDS011;68145;52.514;13.460;2023-05-10T14:16:50;5.00;;;3.00;;
78796;SDS011;68145;52.514;13.460;2023-05-10T14:19:16;5.55;;;2.67;;
78796;SDS011;68145;52.514;13.460;2023-05-10T14:21:42;3.67;;;2.58;;
78796;SDS011;68145;52.514;13.460;2023-05-10T14:24:08;4.57;;;2.78;;
78796;SDS011;68145;52.514;13.460;2023-05-10T14:26:35;7.80;;;3.08;;
78796;SDS011;68145;52.514;13.460;2023-05-10T14:29:01;3.97;;;2.65;;
78796;SDS011;68145;52.514;13.460;2023-05-10T14:31:27;4.95;;;2.47;;
78796;SDS011;68145;52.514;13.460;2023-05-10T14:33:55;9.07;;;3.10;;
78796;SDS011;68145;52.514;13.460;2023-05-10T14:36:22;8.20;;;2.58;;
78796;SDS011;68145;52.514;13.460;2023-05-10T14:38:48;5.43;;;3.10;;
78796;SDS011;68145;52.514;13.460;2023-05-10T14:41:15;6.22;;;2.50;;
78796;SDS011;68145;52.514;13.460;2023-05-10T14:43:42;6.07;;;2.78;;
78796;SDS011;68145;52.514;13.460;2023-05-10T14:46:08;10.68;;;3.80;;
78796;SDS011;68145;52.514;13.460;2023-05-10T14:48:35;5.15;;;2.60;;
78796;SDS011;68145;52.514;13.460;2023-05-10T14:51:01;6.80;;;2.45;;
78796;SDS011;68145;52.514;13.460;2023-05-10T14:55:54;4.35;;;2.65;;
78796;SDS011;68145;52.514;13.460;2023-05-10T14:58:20;8.25;;;2.78;;
78796;SDS011;68145;52.514;13.460;2023-05-10T15:00:46;5.53;;;2.80;;
78796;SDS011;68145;52.514;13.460;2023-05-10T15:03:12;6.43;;;2.67;;
78796;SDS011;68145;52.514;13.460;2023-05-10T15:05:38;5.53;;;3.03;;
78796;SDS011;68145;52.514;13.460;2023-05-10T15:08:04;4.60;;;2.72;;
78796;SDS011;68145;52.514;13.460;2023-05-10T15:10:31;4.05;;;2.60;;
78796;SDS011;68145;52.514;13.460;2023-05-10T15:13:00;7.68;;;3.15;;
78796;SDS011;68145;52.514;13.460;2023-05-10T15:15:26;3.92;;;2.35;;